sensor_id;sensor_type;location;lat;lon;timestamp;P1;durP1;ratioP1;P2;durP2;ratioP2
7517;SDS011;3800;48.922;9.444;2024-02-15T00:00:27;5.90;;;5.30;;
7517;SDS011;3800;48.922;9.444;2024-02-15T00:02:56;6.90;;;4.60;;
7517;SDS011;3800;48.922;9.444;2024-02-15T00:05:24;5.77;;;5.03;;
7517;SDS011;3800;48.922;9.444;2024-02-15T00:07:54;6.03;;;4.77;;
7517;SDS011;3800;48.922;9.444;2024-02-15T00:10:22;5.23;;;4.37;;
7517;SDS011;3800;48.922;9.444;2024-02-15T00:12:52;4.50;;;3.90;;
7517;SDS011;3800;48.922;9.444;2024-02-15T00:15:22;4.67;;;4.27;;
7517;SDS011;3800;48.922;9.444;2024-02-15T00:17:50;5.50;;;4.17;;
7517;SDS011;3800;48.922;9.444;2024-02-15T00:20:21;5.37;;;4.50;;
7517;SDS011;3800;48.922;9.444;2024-02-15T00:22:49;6.73;;;5.00;;
7517;SDS011;3800;48.922;9.444;2024-02-15T00:25:19;5.47;;;4.40;;
7517;SDS011;3800;48.922;9.444;2024-02-15T00:27:48;5.43;;;4.83;;
7517;SDS011;3800;48.922;9.444;2024-02-15T00:30:16;5.50;;;4.53;;
7517;SDS011;3800;48.922;9.444;2024-02-15T00:32:45;4.63;;;4.17;;
7517;SDS011;3800;48.922;9.444;2024-02-15T00:35:12;6.43;;;5.10;;
7517;SDS011;3800;48.922;9.444;2024-02-15T00:37:41;6.63;;;4.50;;
7517;SDS011;3800;48.922;9.444;2024-02-15T00:40:10;6.20;;;5.00;;
7517;SDS011;3800;48.922;9.444;2024-02-15T00:42:39;6.87;;;5.20;;
7517;SDS011;3800;48.922;9.444;2024-02-15T00:45:09;6.40;;;5.27;;
7517;SDS011;3800;48.922;9.444;2024-02-15T00:47:37;6.67;;;5.63;;
7517;SDS011;3800;48.922;9.444;2024-02-15T00:50:10;7.83;;;6.47;;
7517;SDS011;3800;48.922;9.444;2024-02-15T00:52:38;5.67;;;5.17;;
7517;SDS011;3800;48.922;9.444;2024-02-15T00:55:07;7.53;;;6.03;;
7517;SDS011;3800;48.922;9.444;2024-02-15T00:57:36;6.40;;;5.80;;
7517;SDS011;3800;48.922;9.444;2024-02-15T01:00:04;6.50;;;5.83;;
7517;SDS011;3800;48.922;9.444;2024-02-15T01:02:33;6.97;;;5.63;;
7517;SDS011;3800;48.922;9.444;2024-02-15T01:05:05;5.77;;;5.17;;
7517;SDS011;3800;48.922;9.444;2024-02-15T01:07:35;7.13;;;5.97;;
7517;SDS011;3800;48.922;9.444;2024-02-15T01:10:03;6.87;;;5.83;;
7517;SDS011;3800;48.922;9.444;2024-02-15T01:12:33;6.27;;;5.30;;
7517;SDS011;3800;48.922;9.444;2024-02-15T01:15:02;6.27;;;5.47;;
7517;SDS011;3800;48.922;9.444;2024-02-15T01:17:30;5.90;;;5.03;;
7517;SDS011;3800;48.922;9.444;2024-02-15T01:19:58;6.67;;;5.50;;
7517;SDS011;3800;48.922;9.444;2024-02-15T01:22:26;5.30;;;4.80;;
7517;SDS011;3800;48.922;9.444;2024-02-15T01:24:54;5.93;;;5.10;;
7517;SDS011;3800;48.922;9.444;2024-02-15T01:27:22;5.33;;;4.77;;
7517;SDS011;3800;48.922;9.444;2024-02-15T01:29:50;5.70;;;5.00;;
7517;SDS011;3800;48.922;9.444;2024-02-15T01:32:18;5.20;;;4.70;;
7517;SDS011;3800;48.922;9.444;2024-02-15T01:34:47;7.13;;;5.40;;
7517;SDS011;3800;48.922;9.444;2024-02-15T01:37:16;6.03;;;5.20;;
7517;SDS011;3800;48.922;9.444;2024-02-15T01:39:44;7.87;;;5.10;;
7517;SDS011;3800;48.922;9.444;2024-02-15T01:42:13;6.03;;;5.23;;
7517;SDS011;3800;48.922;9.444;2024-02-15T01:44:42;5.93;;;5.00;;
7517;SDS011;3800;48.922;9.444;2024-02-15T01:47:11;6.10;;;5.07;;
7517;SDS011;3800;48.922;9.444;2024-02-15T01:49:39;6.50;;;4.83;;
7517;SDS011;3800;48.922;9.444;2024-02-15T01:52:07;5.23;;;4.40;;
7517;SDS011;3800;48.922;9.444;2024-02-15T01:54:35;5.37;;;4.57;;
7517;SDS011;3800;48.922;9.444;2024-02-15T01:57:04;5.33;;;4.47;;
7517;SDS011;3800;48.922;9.444;2024-02-15T01:59:33;6.30;;;5.10;;
7517;SDS011;3800;48.922;9.444;2024-02-15T02:02:02;4.80;;;4.30;;
7517;SDS011;3800;48.922;9.444;2024-02-15T02:04:29;5.73;;;5.23;;
7517;SDS011;3800;48.922;9.444;2024-02-15T02:06:57;5.90;;;4.67;;
7517;SDS011;3800;48.922;9.444;2024-02-15T02:09:25;6.57;;;4.93;;
7517;SDS011;3800;48.922;9.444;2024-02-15T02:11:53;6.33;;;5.50;;
7517;SDS011;3800;48.922;9.444;2024-02-15T02:14:21;8.10;;;6.00;;
7517;SDS011;3800;48.922;9.444;2024-02-15T02:16:49;7.07;;;5.03;;
7517;SDS011;3800;48.922;9.444;2024-02-15T02:19:19;10.03;;;5.67;;
7517;SDS011;3800;48.922;9.444;2024-02-15T02:21:47;6.93;;;5.60;;
7517;SDS011;3800;48.922;9.444;2024-02-15T02:24:21;6.23;;;5.47;;
7517;SDS011;3800;48.922;9.444;2024-02-15T02:26:43;6.03;;;5.40;;
7517;SDS011;3800;48.922;9.444;2024-02-15T02:29:12;6.70;;;5.80;;
7517;SDS011;3800;48.922;9.444;2024-02-15T02:31:41;6.67;;;6.07;;
7517;SDS011;3800;48.922;9.444;2024-02-15T02:34:09;6.60;;;5.83;;
7517;SDS011;3800;48.922;9.444;2024-02-15T02:36:37;8.70;;;5.83;;
7517;SDS011;3800;48.922;9.444;2024-02-15T02:39:06;8.60;;;6.37;;
7517;SDS011;3800;48.922;9.444;2024-02-15T02:41:34;7.67;;;5.77;;
7517;SDS011;3800;48.922;9.444;2024-02-15T02:44:02;6.17;;;4.67;;
7517;SDS011;3800;48.922;9.444;2024-02-15T02:46:31;7.40;;;5.40;;
7517;SDS011;3800;48.922;9.444;2024-02-15T02:48:59;7.63;;;5.10;;
7517;SDS011;3800;48.922;9.444;2024-02-15T02:51:28;6.43;;;5.30;;
7517;SDS011;3800;48.922;9.444;2024-02-15T02:53:56;5.93;;;5.33;;
7517;SDS011;3800;48.922;9.444;2024-02-15T02:56:24;5.40;;;4.90;;
7517;SDS011;3800;48.922;9.444;2024-02-15T02:58:52;5.03;;;4.30;;
7517;SDS011;3800;48.922;9.444;2024-02-15T03:01:22;5.33;;;4.33;;
7517;SDS011;3800;48.922;9.444;2024-02-15T03:03:49;5.93;;;4.23;;
7517;SDS011;3800;48.922;9.444;2024-02-15T03:06:18;6.37;;;4.33;;
7517;SDS011;3800;48.922;9.444;2024-02-15T03:08:47;5.47;;;4.23;;
7517;SDS011;3800;48.922;9.444;2024-02-15T03:11:15;5.40;;;4.10;;
7517;SDS011;3800;48.922;9.444;2024-02-15T03:13:42;5.00;;;4.37;;
7517;SDS011;3800;48.922;9.444;2024-02-15T03:16:10;5.03;;;4.53;;
7517;SDS011;3800;48.922;9.444;2024-02-15T03:18:39;5.30;;;4.50;;
7517;SDS011;3800;48.922;9.444;2024-02-15T03:21:07;4.90;;;4.40;;
7517;SDS011;3800;48.922;9.444;2024-02-15T03:23:35;5.57;;;4.77;;
7517;SDS011;3800;48.922;9.444;2024-02-15T03:26:03;7.20;;;4.73;;
7517;SDS011;3800;48.922;9.444;2024-02-15T03:28:30;7.13;;;5.53;;
7517;SDS011;3800;48.922;9.444;2024-02-15T03:30:59;6.67;;;5.33;;
7517;SDS011;3800;48.922;9.444;2024-02-15T03:33:28;5.87;;;4.87;;
7517;SDS011;3800;48.922;9.444;2024-02-15T03:35:55;6.13;;;4.90;;
7517;SDS011;3800;48.922;9.444;2024-02-15T03:38:23;6.63;;;4.90;;
7517;SDS011;3800;48.922;9.444;2024-02-15T03:40:52;5.60;;;5.00;;
7517;SDS011;3800;48.922;9.444;2024-02-15T03:43:20;5.40;;;4.50;;
7517;SDS011;3800;48.922;9.444;2024-02-15T03:45:49;6.33;;;5.00;;
7517;SDS011;3800;48.922;9.444;2024-02-15T03:48:16;5.23;;;4.50;;
7517;SDS011;3800;48.922;9.444;2024-02-15T03:50:45;4.97;;;4.10;;
7517;SDS011;3800;48.922;9.444;2024-02-15T03:53:14;5.17;;;4.67;;
7517;SDS011;3800;48.922;9.444;2024-02-15T03:55:41;5.43;;;4.93;;
7517;SDS011;3800;48.922;9.444;2024-02-15T03:58:10;4.90;;;4.33;;
7517;SDS011;3800;48.922;9.444;2024-02-15T04:00:38;5.37;;;4.37;;
7517;SDS011;3800;48.922;9.444;2024-02-15T04:03:06;4.77;;;4.23;;
7517;SDS011;3800;48.922;9.444;2024-02-15T04:05:36;5.87;;;4.00;;
7517;SDS011;3800;48.922;9.444;2024-02-15T04:08:04;5.17;;;3.80;;
7517;SDS011;3800;48.922;9.444;2024-02-15T04:10:33;4.33;;;3.80;;
7517;SDS011;3800;48.922;9.444;2024-02-15T04:13:01;4.40;;;4.00;;
7517;SDS011;3800;48.922;9.444;2024-02-15T04:15:30;5.63;;;4.03;;
7517;SDS011;3800;48.922;9.444;2024-02-15T04:17:58;4.27;;;3.80;;
7517;SDS011;3800;48.922;9.444;2024-02-15T04:20:26;3.93;;;3.27;;
7517;SDS011;3800;48.922;9.444;2024-02-15T04:22:54;4.43;;;3.40;;
7517;SDS011;3800;48.922;9.444;2024-02-15T04:25:23;4.70;;;4.20;;
7517;SDS011;3800;48.922;9.444;2024-02-15T04:27:51;6.50;;;4.20;;
7517;SDS011;3800;48.922;9.444;2024-02-15T04:30:20;5.73;;;4.60;;
7517;SDS011;3800;48.922;9.444;2024-02-15T04:32:49;5.27;;;4.40;;
7517;SDS011;3800;48.922;9.444;2024-02-15T04:35:18;4.83;;;4.30;;
7517;SDS011;3800;48.922;9.444;2024-02-15T04:37:46;5.00;;;4.50;;
7517;SDS011;3800;48.922;9.444;2024-02-15T04:40:14;6.27;;;4.80;;
7517;SDS011;3800;48.922;9.444;2024-02-15T04:42:43;6.00;;;4.77;;
7517;SDS011;3800;48.922;9.444;2024-02-15T04:45:12;5.20;;;4.67;;
7517;SDS011;3800;48.922;9.444;2024-02-15T04:47:40;4.97;;;4.30;;
7517;SDS011;3800;48.922;9.444;2024-02-15T04:50:09;5.13;;;4.60;;
7517;SDS011;3800;48.922;9.444;2024-02-15T04:52:37;8.13;;;4.57;;
7517;SDS011;3800;48.922;9.444;2024-02-15T04:55:05;5.10;;;4.37;;
7517;SDS011;3800;48.922;9.444;2024-02-15T04:57:33;5.80;;;4.57;;
7517;SDS011;3800;48.922;9.444;2024-02-15T05:00:01;5.97;;;5.20;;
7517;SDS011;3800;48.922;9.444;2024-02-15T05:02:29;5.10;;;4.30;;
7517;SDS011;3800;48.922;9.444;2024-02-15T05:04:57;5.50;;;4.93;;
7517;SDS011;3800;48.922;9.444;2024-02-15T05:07:25;6.40;;;4.50;;
7517;SDS011;3800;48.922;9.444;2024-02-15T05:09:53;5.40;;;4.40;;
7517;SDS011;3800;48.922;9.444;2024-02-15T05:12:22;7.23;;;4.60;;
7517;SDS011;3800;48.922;9.444;2024-02-15T05:14:50;4.97;;;4.53;;
7517;SDS011;3800;48.922;9.444;2024-02-15T05:17:19;5.30;;;4.80;;
7517;SDS011;3800;48.922;9.444;2024-02-15T05:19:49;6.50;;;5.07;;
7517;SDS011;3800;48.922;9.444;2024-02-15T05:22:15;8.10;;;4.87;;
7517;SDS011;3800;48.922;9.444;2024-02-15T05:24:43;5.73;;;4.20;;
7517;SDS011;3800;48.922;9.444;2024-02-15T05:27:11;7.10;;;4.83;;
7517;SDS011;3800;48.922;9.444;2024-02-15T05:29:40;6.33;;;4.40;;
7517;SDS011;3800;48.922;9.444;2024-02-15T05:32:08;4.57;;;4.10;;
7517;SDS011;3800;48.922;9.444;2024-02-15T05:34:36;4.33;;;3.93;;
7517;SDS011;3800;48.922;9.444;2024-02-15T05:37:04;5.93;;;4.53;;
7517;SDS011;3800;48.922;9.444;2024-02-15T05:39:32;10.03;;;4.13;;
7517;SDS011;3800;48.922;9.444;2024-02-15T05:42:00;5.60;;;4.10;;
7517;SDS011;3800;48.922;9.444;2024-02-15T05:44:28;4.40;;;4.00;;
7517;SDS011;3800;48.922;9.444;2024-02-15T05:46:56;8.10;;;3.90;;
7517;SDS011;3800;48.922;9.444;2024-02-15T05:49:24;4.47;;;3.90;;
7517;SDS011;3800;48.922;9.444;2024-02-15T05:51:53;4.43;;;3.90;;
7517;SDS011;3800;48.922;9.444;2024-02-15T05:54:21;5.27;;;3.97;;
7517;SDS011;3800;48.922;9.444;2024-02-15T05:56:53;6.10;;;4.33;;
7517;SDS011;3800;48.922;9.444;2024-02-15T05:59:21;5.40;;;4.27;;
7517;SDS011;3800;48.922;9.444;2024-02-15T06:01:49;4.83;;;4.07;;
7517;SDS011;3800;48.922;9.444;2024-02-15T06:04:18;4.97;;;4.03;;
7517;SDS011;3800;48.922;9.444;2024-02-15T06:06:46;7.37;;;4.53;;
7517;SDS011;3800;48.922;9.444;2024-02-15T06:09:15;4.80;;;4.20;;
7517;SDS011;3800;48.922;9.444;2024-02-15T06:11:43;5.77;;;4.30;;
7517;SDS011;3800;48.922;9.444;2024-02-15T06:14:11;6.00;;;4.40;;
7517;SDS011;3800;48.922;9.444;2024-02-15T06:16:43;8.03;;;4.90;;
7517;SDS011;3800;48.922;9.444;2024-02-15T06:19:11;5.03;;;4.53;;
7517;SDS011;3800;48.922;9.444;2024-02-15T06:21:38;9.13;;;5.00;;
7517;SDS011;3800;48.922;9.444;2024-02-15T06:24:07;6.73;;;5.00;;
7517;SDS011;3800;48.922;9.444;2024-02-15T06:26:35;6.10;;;4.60;;
7517;SDS011;3800;48.922;9.444;2024-02-15T06:29:04;6.57;;;4.57;;
7517;SDS011;3800;48.922;9.444;2024-02-15T06:31:39;5.87;;;4.10;;
7517;SDS011;3800;48.922;9.444;2024-02-15T06:34:13;4.77;;;4.20;;
7517;SDS011;3800;48.922;9.444;2024-02-15T06:36:47;6.20;;;4.50;;
7517;SDS011;3800;48.922;9.444;2024-02-15T06:39:21;4.47;;;4.07;;
7517;SDS011;3800;48.922;9.444;2024-02-15T06:42:06;4.73;;;4.10;;
7517;SDS011;3800;48.922;9.444;2024-02-15T06:44:35;4.87;;;4.23;;
7517;SDS011;3800;48.922;9.444;2024-02-15T06:47:03;7.07;;;4.37;;
7517;SDS011;3800;48.922;9.444;2024-02-15T06:49:32;7.90;;;4.90;;
7517;SDS011;3800;48.922;9.444;2024-02-15T06:52:01;6.53;;;4.40;;
7517;SDS011;3800;48.922;9.444;2024-02-15T06:54:29;6.90;;;4.50;;
7517;SDS011;3800;48.922;9.444;2024-02-15T06:56:57;4.80;;;4.10;;
7517;SDS011;3800;48.922;9.444;2024-02-15T06:59:27;4.50;;;3.70;;
7517;SDS011;3800;48.922;9.444;2024-02-15T07:01:55;4.27;;;3.87;;
7517;SDS011;3800;48.922;9.444;2024-02-15T07:04:23;5.67;;;4.43;;
7517;SDS011;3800;48.922;9.444;2024-02-15T07:06:52;5.77;;;4.13;;
7517;SDS011;3800;48.922;9.444;2024-02-15T07:09:20;10.97;;;7.00;;
7517;SDS011;3800;48.922;9.444;2024-02-15T07:11:49;9.47;;;5.77;;
7517;SDS011;3800;48.922;9.444;2024-02-15T07:14:17;22.83;;;15.43;;
7517;SDS011;3800;48.922;9.444;2024-02-15T07:16:46;18.97;;;13.50;;
7517;SDS011;3800;48.922;9.444;2024-02-15T07:19:14;16.70;;;10.50;;
7517;SDS011;3800;48.922;9.444;2024-02-15T07:21:42;9.50;;;6.70;;
7517;SDS011;3800;48.922;9.444;2024-02-15T07:24:10;7.27;;;5.77;;
7517;SDS011;3800;48.922;9.444;2024-02-15T07:26:38;5.73;;;4.87;;
7517;SDS011;3800;48.922;9.444;2024-02-15T07:29:06;9.57;;;4.50;;
7517;SDS011;3800;48.922;9.444;2024-02-15T07:31:34;5.67;;;4.23;;
7517;SDS011;3800;48.922;9.444;2024-02-15T07:34:02;4.30;;;3.50;;
7517;SDS011;3800;48.922;9.444;2024-02-15T07:36:30;6.07;;;3.00;;
7517;SDS011;3800;48.922;9.444;2024-02-15T07:38:58;3.00;;;2.40;;
7517;SDS011;3800;48.922;9.444;2024-02-15T07:41:26;4.17;;;2.50;;
7517;SDS011;3800;48.922;9.444;2024-02-15T07:43:54;3.47;;;2.50;;
7517;SDS011;3800;48.922;9.444;2024-02-15T07:46:23;2.93;;;2.13;;
7517;SDS011;3800;48.922;9.444;2024-02-15T07:48:51;3.10;;;2.33;;
7517;SDS011;3800;48.922;9.444;2024-02-15T07:51:20;4.37;;;2.80;;
7517;SDS011;3800;48.922;9.444;2024-02-15T07:53:47;2.90;;;2.60;;
7517;SDS011;3800;48.922;9.444;2024-02-15T07:56:16;3.60;;;2.50;;
7517;SDS011;3800;48.922;9.444;2024-02-15T07:58:44;4.23;;;2.60;;
7517;SDS011;3800;48.922;9.444;2024-02-15T08:01:14;6.30;;;3.67;;
7517;SDS011;3800;48.922;9.444;2024-02-15T08:03:41;3.07;;;2.57;;
7517;SDS011;3800;48.922;9.444;2024-02-15T08:06:12;4.57;;;2.50;;
7517;SDS011;3800;48.922;9.444;2024-02-15T08:08:40;5.53;;;2.83;;
7517;SDS011;3800;48.922;9.444;2024-02-15T08:11:09;3.27;;;2.60;;
7517;SDS011;3800;48.922;9.444;2024-02-15T08:13:37;3.63;;;2.70;;
7517;SDS011;3800;48.922;9.444;2024-02-15T08:16:05;2.90;;;2.13;;
7517;SDS011;3800;48.922;9.444;2024-02-15T08:18:33;4.07;;;2.47;;
7517;SDS011;3800;48.922;9.444;2024-02-15T08:21:01;3.67;;;2.10;;
7517;SDS011;3800;48.922;9.444;2024-02-15T08:23:30;3.90;;;1.93;;
7517;SDS011;3800;48.922;9.444;2024-02-15T08:25:58;4.90;;;1.90;;
7517;SDS011;3800;48.922;9.444;2024-02-15T08:28:26;4.67;;;1.87;;
7517;SDS011;3800;48.922;9.444;2024-02-15T08:30:55;3.47;;;1.90;;
7517;SDS011;3800;48.922;9.444;2024-02-15T08:33:24;1.80;;;1.70;;
7517;SDS011;3800;48.922;9.444;2024-02-15T08:35:53;3.43;;;2.03;;
7517;SDS011;3800;48.922;9.444;2024-02-15T08:38:23;3.53;;;1.87;;
7517;SDS011;3800;48.922;9.444;2024-02-15T08:40:50;3.47;;;1.73;;
7517;SDS011;3800;48.922;9.444;2024-02-15T08:43:20;3.30;;;1.90;;
7517;SDS011;3800;48.922;9.444;2024-02-15T08:45:48;3.30;;;1.70;;
7517;SDS011;3800;48.922;9.444;2024-02-15T08:48:17;3.80;;;1.57;;
7517;SDS011;3800;48.922;9.444;2024-02-15T08:50:45;3.67;;;1.70;;
7517;SDS011;3800;48.922;9.444;2024-02-15T08:53:12;2.77;;;1.53;;
7517;SDS011;3800;48.922;9.444;2024-02-15T08:55:41;3.23;;;1.80;;
7517;SDS011;3800;48.922;9.444;2024-02-15T08:58:09;2.13;;;1.57;;
7517;SDS011;3800;48.922;9.444;2024-02-15T09:00:38;3.10;;;1.77;;
7517;SDS011;3800;48.922;9.444;2024-02-15T09:03:06;5.97;;;2.00;;
7517;SDS011;3800;48.922;9.444;2024-02-15T09:05:34;2.23;;;1.80;;
7517;SDS011;3800;48.922;9.444;2024-02-15T09:08:02;2.17;;;1.60;;
7517;SDS011;3800;48.922;9.444;2024-02-15T09:10:30;4.03;;;1.70;;
7517;SDS011;3800;48.922;9.444;2024-02-15T09:12:58;3.20;;;1.60;;
7517;SDS011;3800;48.922;9.444;2024-02-15T09:15:28;3.90;;;1.90;;
7517;SDS011;3800;48.922;9.444;2024-02-15T09:17:55;2.73;;;2.03;;
7517;SDS011;3800;48.922;9.444;2024-02-15T09:20:23;4.37;;;2.00;;
7517;SDS011;3800;48.922;9.444;2024-02-15T09:22:51;4.70;;;1.87;;
7517;SDS011;3800;48.922;9.444;2024-02-15T09:25:22;2.80;;;1.90;;
7517;SDS011;3800;48.922;9.444;2024-02-15T09:27:50;2.23;;;1.60;;
7517;SDS011;3800;48.922;9.444;2024-02-15T09:30:18;2.57;;;1.77;;
7517;SDS011;3800;48.922;9.444;2024-02-15T09:32:46;3.13;;;1.67;;
7517;SDS011;3800;48.922;9.444;2024-02-15T09:35:14;3.40;;;1.93;;
7517;SDS011;3800;48.922;9.444;2024-02-15T09:37:43;3.50;;;1.90;;
7517;SDS011;3800;48.922;9.444;2024-02-15T09:40:12;2.17;;;1.80;;
7517;SDS011;3800;48.922;9.444;2024-02-15T09:42:40;3.20;;;1.83;;
7517;SDS011;3800;48.922;9.444;2024-02-15T09:45:08;2.50;;;1.80;;
7517;SDS011;3800;48.922;9.444;2024-02-15T09:47:38;2.57;;;1.60;;
7517;SDS011;3800;48.922;9.444;2024-02-15T09:50:08;2.47;;;1.87;;
7517;SDS011;3800;48.922;9.444;2024-02-15T09:52:38;2.37;;;1.90;;
7517;SDS011;3800;48.922;9.444;2024-02-15T09:55:06;4.63;;;1.60;;
7517;SDS011;3800;48.922;9.444;2024-02-15T09:57:36;2.07;;;1.73;;
7517;SDS011;3800;48.922;9.444;2024-02-15T10:00:07;2.87;;;1.90;;
7517;SDS011;3800;48.922;9.444;2024-02-15T10:02:35;3.43;;;1.50;;
7517;SDS011;3800;48.922;9.444;2024-02-15T10:05:04;2.70;;;1.37;;
7517;SDS011;3800;48.922;9.444;2024-02-15T10:07:33;2.70;;;1.33;;
7517;SDS011;3800;48.922;9.444;2024-02-15T10:10:13;4.57;;;1.93;;
7517;SDS011;3800;48.922;9.444;2024-02-15T10:12:45;3.73;;;1.90;;
7517;SDS011;3800;48.922;9.444;2024-02-15T10:15:28;2.77;;;1.47;;
7517;SDS011;3800;48.922;9.444;2024-02-15T10:17:59;3.87;;;1.80;;
7517;SDS011;3800;48.922;9.444;2024-02-15T10:20:26;2.47;;;1.47;;
7517;SDS011;3800;48.922;9.444;2024-02-15T10:23:14;3.30;;;1.43;;
7517;SDS011;3800;48.922;9.444;2024-02-15T10:25:43;3.03;;;1.30;;
7517;SDS011;3800;48.922;9.444;2024-02-15T10:28:12;4.47;;;1.50;;
7517;SDS011;3800;48.922;9.444;2024-02-15T10:30:40;2.53;;;1.47;;
7517;SDS011;3800;48.922;9.444;2024-02-15T10:33:07;5.17;;;1.70;;
7517;SDS011;3800;48.922;9.444;2024-02-15T10:35:35;1.97;;;1.33;;
7517;SDS011;3800;48.922;9.444;2024-02-15T10:38:06;3.23;;;1.30;;
7517;SDS011;3800;48.922;9.444;2024-02-15T10:40:36;4.13;;;1.50;;
7517;SDS011;3800;48.922;9.444;2024-02-15T10:43:04;6.20;;;1.40;;
7517;SDS011;3800;48.922;9.444;2024-02-15T10:45:32;2.20;;;1.30;;
7517;SDS011;3800;48.922;9.444;2024-02-15T10:48:01;3.53;;;1.67;;
7517;SDS011;3800;48.922;9.444;2024-02-15T10:50:31;2.03;;;1.20;;
7517;SDS011;3800;48.922;9.444;2024-02-15T10:53:00;3.47;;;1.20;;
7517;SDS011;3800;48.922;9.444;2024-02-15T10:55:35;3.17;;;1.20;;
7517;SDS011;3800;48.922;9.444;2024-02-15T10:58:07;4.13;;;1.60;;
7517;SDS011;3800;48.922;9.444;2024-02-15T11:00:35;3.07;;;1.50;;
7517;SDS011;3800;48.922;9.444;2024-02-15T11:03:04;3.33;;;1.60;;
7517;SDS011;3800;48.922;9.444;2024-02-15T11:05:33;2.03;;;1.40;;
7517;SDS011;3800;48.922;9.444;2024-02-15T11:08:02;3.53;;;1.40;;
7517;SDS011;3800;48.922;9.444;2024-02-15T11:10:30;2.57;;;1.50;;
7517;SDS011;3800;48.922;9.444;2024-02-15T11:12:57;3.83;;;1.50;;
7517;SDS011;3800;48.922;9.444;2024-02-15T11:15:59;2.40;;;1.23;;
7517;SDS011;3800;48.922;9.444;2024-02-15T11:18:13;3.13;;;1.47;;
7517;SDS011;3800;48.922;9.444;2024-02-15T11:23:25;4.60;;;1.43;;
7517;SDS011;3800;48.922;9.444;2024-02-15T11:25:53;2.47;;;1.23;;
7517;SDS011;3800;48.922;9.444;2024-02-15T11:28:36;3.87;;;1.50;;
7517;SDS011;3800;48.922;9.444;2024-02-15T11:31:06;2.70;;;1.27;;
7517;SDS011;3800;48.922;9.444;2024-02-15T11:33:34;3.20;;;1.33;;
7517;SDS011;3800;48.922;9.444;2024-02-15T11:36:05;4.13;;;1.60;;
7517;SDS011;3800;48.922;9.444;2024-02-15T11:38:34;2.07;;;1.13;;
7517;SDS011;3800;48.922;9.444;2024-02-15T11:41:03;3.97;;;1.50;;
7517;SDS011;3800;48.922;9.444;2024-02-15T11:43:52;2.13;;;1.20;;
7517;SDS011;3800;48.922;9.444;2024-02-15T11:46:22;2.47;;;1.40;;
7517;SDS011;3800;48.922;9.444;2024-02-15T11:48:49;2.73;;;1.40;;
7517;SDS011;3800;48.922;9.444;2024-02-15T11:54:01;4.17;;;1.47;;
7517;SDS011;3800;48.922;9.444;2024-02-15T11:56:48;2.43;;;1.30;;
7517;SDS011;3800;48.922;9.444;2024-02-15T11:59:16;4.07;;;1.20;;
7517;SDS011;3800;48.922;9.444;2024-02-15T12:01:46;3.20;;;1.30;;
7517;SDS011;3800;48.922;9.444;2024-02-15T12:04:19;4.40;;;1.30;;
7517;SDS011;3800;48.922;9.444;2024-02-15T12:06:56;4.43;;;1.23;;
7517;SDS011;3800;48.922;9.444;2024-02-15T12:09:29;2.53;;;1.33;;
7517;SDS011;3800;48.922;9.444;2024-02-15T12:12:03;2.80;;;1.20;;
7517;SDS011;3800;48.922;9.444;2024-02-15T12:14:36;4.20;;;1.20;;
7517;SDS011;3800;48.922;9.444;2024-02-15T12:17:11;3.83;;;1.30;;
7517;SDS011;3800;48.922;9.444;2024-02-15T12:19:44;3.33;;;1.30;;
7517;SDS011;3800;48.922;9.444;2024-02-15T12:22:15;9.40;;;1.20;;
7517;SDS011;3800;48.922;9.444;2024-02-15T12:24:42;3.07;;;1.17;;
7517;SDS011;3800;48.922;9.444;2024-02-15T12:27:10;3.50;;;1.10;;
7517;SDS011;3800;48.922;9.444;2024-02-15T12:29:38;1.97;;;1.20;;
7517;SDS011;3800;48.922;9.444;2024-02-15T12:32:08;2.37;;;1.20;;
7517;SDS011;3800;48.922;9.444;2024-02-15T12:34:36;2.47;;;1.20;;
7517;SDS011;3800;48.922;9.444;2024-02-15T12:37:05;2.97;;;1.13;;
7517;SDS011;3800;48.922;9.444;2024-02-15T12:39:33;2.73;;;1.40;;
7517;SDS011;3800;48.922;9.444;2024-02-15T12:42:00;2.60;;;1.33;;
7517;SDS011;3800;48.922;9.444;2024-02-15T12:44:28;2.90;;;1.30;;
7517;SDS011;3800;48.922;9.444;2024-02-15T12:46:57;2.87;;;1.07;;
7517;SDS011;3800;48.922;9.444;2024-02-15T12:49:28;2.83;;;1.40;;
7517;SDS011;3800;48.922;9.444;2024-02-15T12:52:32;3.43;;;1.40;;
7517;SDS011;3800;48.922;9.444;2024-02-15T12:54:44;4.73;;;3.80;;
7517;SDS011;3800;48.922;9.444;2024-02-15T12:57:12;2.47;;;1.60;;
7517;SDS011;3800;48.922;9.444;2024-02-15T12:59:40;2.07;;;1.10;;
7517;SDS011;3800;48.922;9.444;2024-02-15T13:02:08;2.50;;;1.13;;
7517;SDS011;3800;48.922;9.444;2024-02-15T13:04:36;3.40;;;1.47;;
7517;SDS011;3800;48.922;9.444;2024-02-15T13:07:03;4.83;;;1.30;;
7517;SDS011;3800;48.922;9.444;2024-02-15T13:09:32;1.97;;;1.00;;
7517;SDS011;3800;48.922;9.444;2024-02-15T13:12:00;2.43;;;1.30;;
7517;SDS011;3800;48.922;9.444;2024-02-15T13:14:28;3.87;;;1.20;;
7517;SDS011;3800;48.922;9.444;2024-02-15T13:16:57;2.50;;;1.13;;
7517;SDS011;3800;48.922;9.444;2024-02-15T13:19:25;3.57;;;1.30;;
7517;SDS011;3800;48.922;9.444;2024-02-15T13:21:53;6.27;;;1.50;;
7517;SDS011;3800;48.922;9.444;2024-02-15T13:24:21;3.37;;;1.20;;
7517;SDS011;3800;48.922;9.444;2024-02-15T13:26:49;3.00;;;1.47;;
7517;SDS011;3800;48.922;9.444;2024-02-15T13:29:17;1.80;;;1.20;;
7517;SDS011;3800;48.922;9.444;2024-02-15T13:31:45;1.70;;;1.03;;
7517;SDS011;3800;48.922;9.444;2024-02-15T13:34:14;2.13;;;1.23;;
7517;SDS011;3800;48.922;9.444;2024-02-15T13:36:42;3.77;;;1.57;;
7517;SDS011;3800;48.922;9.444;2024-02-15T13:39:11;3.17;;;1.40;;
7517;SDS011;3800;48.922;9.444;2024-02-15T13:41:39;3.97;;;1.30;;
7517;SDS011;3800;48.922;9.444;2024-02-15T13:44:07;2.03;;;1.30;;
7517;SDS011;3800;48.922;9.444;2024-02-15T13:46:35;2.13;;;1.30;;
7517;SDS011;3800;48.922;9.444;2024-02-15T13:49:04;2.37;;;1.30;;
7517;SDS011;3800;48.922;9.444;2024-02-15T13:51:32;1.80;;;1.20;;
7517;SDS011;3800;48.922;9.444;2024-02-15T13:54:00;3.90;;;1.40;;
7517;SDS011;3800;48.922;9.444;2024-02-15T13:56:28;2.20;;;1.23;;
7517;SDS011;3800;48.922;9.444;2024-02-15T13:58:56;2.40;;;1.20;;
7517;SDS011;3800;48.922;9.444;2024-02-15T14:01:24;1.30;;;1.00;;
7517;SDS011;3800;48.922;9.444;2024-02-15T14:03:54;1.80;;;1.33;;
7517;SDS011;3800;48.922;9.444;2024-02-15T14:06:21;2.10;;;1.30;;
7517;SDS011;3800;48.922;9.444;2024-02-15T14:08:49;3.20;;;1.43;;
7517;SDS011;3800;48.922;9.444;2024-02-15T14:11:18;3.33;;;1.30;;
7517;SDS011;3800;48.922;9.444;2024-02-15T14:13:46;3.10;;;1.30;;
7517;SDS011;3800;48.922;9.444;2024-02-15T14:16:14;2.50;;;1.40;;
7517;SDS011;3800;48.922;9.444;2024-02-15T14:18:43;3.67;;;1.37;;
7517;SDS011;3800;48.922;9.444;2024-02-15T14:21:11;1.43;;;1.10;;
7517;SDS011;3800;48.922;9.444;2024-02-15T14:23:40;2.70;;;1.20;;
7517;SDS011;3800;48.922;9.444;2024-02-15T14:26:08;4.10;;;1.43;;
7517;SDS011;3800;48.922;9.444;2024-02-15T14:28:38;2.53;;;1.40;;
7517;SDS011;3800;48.922;9.444;2024-02-15T14:31:07;2.37;;;1.20;;
7517;SDS011;3800;48.922;9.444;2024-02-15T14:33:40;2.83;;;1.20;;
7517;SDS011;3800;48.922;9.444;2024-02-15T14:36:08;1.97;;;1.00;;
7517;SDS011;3800;48.922;9.444;2024-02-15T14:38:36;2.17;;;1.30;;
7517;SDS011;3800;48.922;9.444;2024-02-15T14:41:05;2.07;;;1.30;;
7517;SDS011;3800;48.922;9.444;2024-02-15T14:43:33;1.50;;;1.30;;
7517;SDS011;3800;48.922;9.444;2024-02-15T14:46:02;3.13;;;1.27;;
7517;SDS011;3800;48.922;9.444;2024-02-15T14:48:33;2.00;;;1.40;;
7517;SDS011;3800;48.922;9.444;2024-02-15T14:51:03;3.00;;;1.10;;
7517;SDS011;3800;48.922;9.444;2024-02-15T14:53:32;2.33;;;1.30;;
7517;SDS011;3800;48.922;9.444;2024-02-15T14:56:00;2.10;;;1.20;;
7517;SDS011;3800;48.922;9.444;2024-02-15T14:58:28;2.33;;;1.37;;
7517;SDS011;3800;48.922;9.444;2024-02-15T15:00:56;3.83;;;1.30;;
7517;SDS011;3800;48.922;9.444;2024-02-15T15:03:25;2.70;;;1.20;;
7517;SDS011;3800;48.922;9.444;2024-02-15T15:05:52;2.03;;;1.20;;
7517;SDS011;3800;48.922;9.444;2024-02-15T15:08:26;2.90;;;1.30;;
7517;SDS011;3800;48.922;9.444;2024-02-15T15:11:00;3.37;;;1.33;;
7517;SDS011;3800;48.922;9.444;2024-02-15T15:13:34;2.90;;;1.30;;
7517;SDS011;3800;48.922;9.444;2024-02-15T15:16:02;2.60;;;1.33;;
7517;SDS011;3800;48.922;9.444;2024-02-15T15:18:31;1.70;;;1.20;;
7517;SDS011;3800;48.922;9.444;2024-02-15T15:20:59;2.57;;;1.40;;
7517;SDS011;3800;48.922;9.444;2024-02-15T15:23:27;5.17;;;1.43;;
7517;SDS011;3800;48.922;9.444;2024-02-15T15:25:58;1.80;;;1.23;;
7517;SDS011;3800;48.922;9.444;2024-02-15T15:28:26;1.90;;;1.30;;
7517;SDS011;3800;48.922;9.444;2024-02-15T15:30:54;2.83;;;1.60;;